Time;durP1;ratioP1;P1;durP2;ratioP2;P2;SDS_P1;SDS_P2;PMS_P1;PMS_P2;Temp;Humidity;BMP_temperature;BMP_pressure;BME280_temperature;BME280_humidity;BME280_pressure;Samples;Min_cycle;Max_cycle;Signal;HPM_P1;HPM_P2
2023/04/02 00:00:12;;;;;;;9.30;3.58;;;;;;;;;;4863841;29;20031;-94
2023/04/02 00:03:10;;;;;;;6.25;2.50;;;;;;;;;;4865433;29;20208;-95
2023/04/02 00:05:49;;;;;;;6.13;2.78;;;;;;;;;;4836147;29;20052;-94
2023/04/02 00:08:37;;;;;;;9.13;3.10;;;;;;;;;;4860066;29;20033;-94
2023/04/02 00:11:04;;;;;;;7.68;2.67;;;;;;;;;;4881311;29;20594;-94
2023/04/02 00:13:34;;;;;;;9.80;2.83;;;;;;;;;;4863749;29;20405;-95
2023/04/02 00:16:02;;;;;;;5.22;2.50;;;;;;;;;;4883734;29;20052;-95
2023/04/02 00:18:28;;;;;;;11.60;2.83;;;;;;;;;;4857305;29;20029;-94
2023/04/02 00:21:03;;;;;;;5.03;2.40;;;;;;;;;;4852118;29;20033;-94
2023/04/02 00:23:29;;;;;;;7.85;2.78;;;;;;;;;;4868221;29;20038;-95
2023/04/02 00:25:59;;;;;;;4.28;2.53;;;;;;;;;;4876883;29;20521;-95
2023/04/02 00:28:25;;;;;;;9.88;2.85;;;;;;;;;;4883942;29;20040;-95
2023/04/02 00:30:54;;;;;;;11.27;3.13;;;;;;;;;;4869313;29;20044;-95
2023/04/02 00:33:22;;;;;;;8.93;2.92;;;;;;;;;;4869527;29;20498;-95
2023/04/02 00:35:49;;;;;;;6.85;3.25;;;;;;;;;;4886086;29;20430;-96
2023/04/02 00:38:28;;;;;;;14.00;2.95;;;;;;;;;;4868545;29;20097;-94
2023/04/02 00:40:55;;;;;;;9.85;3.20;;;;;;;;;;4885053;29;20060;-94
2023/04/02 00:43:24;;;;;;;5.25;2.95;;;;;;;;;;4880324;29;20025;-95
2023/04/02 00:45:54;;;;;;;9.85;2.55;;;;;;;;;;4863141;29;20065;-94
2023/04/02 00:48:25;;;;;;;11.63;3.20;;;;;;;;;;4883725;29;20064;-95
2023/04/02 00:50:55;;;;;;;11.13;2.80;;;;;;;;;;4891339;29;20033;-95
2023/04/02 00:53:28;;;;;;;13.02;2.85;;;;;;;;;;4899500;29;20031;-94
2023/04/02 00:55:59;;;;;;;10.10;2.90;;;;;;;;;;4884352;29;20151;-95
2023/04/02 00:58:31;;;;;;;8.50;3.40;;;;;;;;;;4872834;29;20084;-94
2023/04/02 01:00:58;;;;;;;14.55;3.28;;;;;;;;;;4875806;29;20040;-93
2023/04/02 01:03:29;;;;;;;9.82;2.92;;;;;;;;;;4883888;29;20077;-94
2023/04/02 01:06:00;;;;;;;10.43;2.50;;;;;;;;;;4882154;29;20112;-94
2023/04/02 01:08:43;;;;;;;7.82;2.50;;;;;;;;;;4878086;29;20036;-94
2023/04/02 01:11:09;;;;;;;4.72;2.53;;;;;;;;;;4890804;29;20037;-94
2023/04/02 01:13:49;;;;;;;6.70;2.42;;;;;;;;;;4882356;29;20039;-94
2023/04/02 01:16:19;;;;;;;4.53;2.65;;;;;;;;;;4883222;29;20036;-94
2023/04/02 01:19:01;;;;;;;10.65;2.72;;;;;;;;;;4878592;29;20033;-94
2023/04/02 01:21:31;;;;;;;6.22;1.77;;;;;;;;;;4883252;29;20025;-94
2023/04/02 01:24:06;;;;;;;6.72;2.35;;;;;;;;;;4885932;29;20063;-94
2023/04/02 01:26:50;;;;;;;6.43;2.38;;;;;;;;;;4885209;29;20052;-94
2023/04/02 01:29:21;;;;;;;4.57;2.08;;;;;;;;;;4881688;29;20090;-94
2023/04/02 01:31:48;;;;;;;5.82;1.95;;;;;;;;;;4882198;29;20096;-94
2023/04/02 01:34:20;;;;;;;7.45;2.20;;;;;;;;;;4882284;29;20040;-94
2023/04/02 01:37:12;;;;;;;3.28;2.00;;;;;;;;;;4876687;29;20039;-94
2023/04/02 01:39:59;;;;;;;11.70;2.00;;;;;;;;;;4893864;29;20103;-94
2023/04/02 01:42:44;;;;;;;5.57;2.08;;;;;;;;;;4880553;29;20470;-94
2023/04/02 01:45:16;;;;;;;9.52;2.90;;;;;;;;;;4883316;29;20076;-94
2023/04/02 01:47:45;;;;;;;4.85;2.35;;;;;;;;;;4884716;29;20036;-94
2023/04/02 01:50:14;;;;;;;4.40;2.30;;;;;;;;;;4884136;29;20040;-94
2023/04/02 01:52:44;;;;;;;9.63;2.03;;;;;;;;;;4879539;29;20040;-94
2023/04/02 01:55:12;;;;;;;4.22;2.05;;;;;;;;;;4893766;29;20377;-94
2023/04/02 01:57:47;;;;;;;8.18;2.45;;;;;;;;;;4898342;29;20036;-94
2023/04/02 02:00:14;;;;;;;3.10;1.85;;;;;;;;;;4883549;29;20565;-94
2023/04/02 02:02:41;;;;;;;6.07;1.80;;;;;;;;;;4883836;29;20060;-94
2023/04/02 02:05:17;;;;;;;7.30;2.50;;;;;;;;;;4881991;29;20033;-94
2023/04/02 02:07:43;;;;;;;;;;;;;;;;;;4868852;29;20430;-94
2023/04/02 02:10:15;;;;;;;5.60;1.58;;;;;;;;;;4894123;29;19907;-94
2023/04/02 02:12:45;;;;;;;4.95;1.83;;;;;;;;;;4881927;29;20144;-94
2023/04/02 02:15:27;;;;;;;5.15;1.70;;;;;;;;;;4876444;29;20040;-94
2023/04/02 02:17:59;;;;;;;3.90;2.40;;;;;;;;;;4885305;29;20103;-95
2023/04/02 02:20:26;;;;;;;6.47;2.15;;;;;;;;;;4887035;29;20155;-94
2023/04/02 02:22:56;;;;;;;9.38;2.13;;;;;;;;;;4909420;29;20036;-95
2023/04/02 02:25:29;;;;;;;7.30;1.90;;;;;;;;;;4880797;29;20032;-94
2023/04/02 02:27:59;;;;;;;5.20;1.42;;;;;;;;;;4905997;29;20044;-94
2023/04/02 02:30:49;;;;;;;5.85;1.73;;;;;;;;;;4899855;29;20049;-95
2023/04/02 02:33:31;;;;;;;3.80;1.70;;;;;;;;;;4835931;29;20047;-95
2023/04/02 02:35:59;;;;;;;4.20;1.58;;;;;;;;;;4892379;29;20040;-95
2023/04/02 02:38:28;;;;;;;6.13;1.90;;;;;;;;;;4889454;29;20013;-95
2023/04/02 02:40:57;;;;;;;6.32;1.95;;;;;;;;;;4888549;29;20037;-94
2023/04/02 02:43:24;;;;;;;6.05;1.73;;;;;;;;;;4893083;29;20140;-95
2023/04/02 02:45:58;;;;;;;5.10;1.42;;;;;;;;;;4878015;29;20036;-95
2023/04/02 02:48:37;;;;;;;7.50;2.20;;;;;;;;;;4895968;29;20024;-95
2023/04/02 02:51:06;;;;;;;12.45;2.28;;;;;;;;;;4906674;29;20100;-95
2023/04/02 02:53:32;;;;;;;10.60;2.20;;;;;;;;;;4873912;29;20044;-95
2023/04/02 02:56:08;;;;;;;10.32;2.13;;;;;;;;;;4900203;29;20153;-95
2023/04/02 02:58:41;;;;;;;7.53;1.80;;;;;;;;;;4883089;29;20037;-94
2023/04/02 03:01:08;;;;;;;4.45;1.77;;;;;;;;;;4868913;29;20028;-94
2023/04/02 03:03:34;;;;;;;7.63;1.92;;;;;;;;;;4896607;29;20056;-96
2023/04/02 03:06:04;;;;;;;6.18;1.90;;;;;;;;;;4878793;29;20037;-94
2023/04/02 03:08:57;;;;;;;6.68;1.40;;;;;;;;;;4900727;29;20130;-94
2023/04/02 03:11:27;;;;;;;4.63;1.58;;;;;;;;;;4880277;29;20052;-95
2023/04/02 03:13:59;;;;;;;14.98;1.80;;;;;;;;;;4895816;29;20482;-95
2023/04/02 03:16:31;;;;;;;8.55;2.28;;;;;;;;;;4883070;29;20124;-94
2023/04/02 03:19:00;;;;;;;4.32;1.60;;;;;;;;;;4894861;29;20116;-94
2023/04/02 03:21:37;;;;;;;7.47;1.65;;;;;;;;;;4881019;29;20264;-95
2023/04/02 03:24:08;;;;;;;7.10;1.70;;;;;;;;;;4877402;29;20655;-95
2023/04/02 03:26:40;;;;;;;7.50;1.55;;;;;;;;;;4878738;29;20153;-94
2023/04/02 03:29:11;;;;;;;7.03;1.60;;;;;;;;;;4893807;29;20040;-94
2023/04/02 03:31:59;;;;;;;6.10;1.75;;;;;;;;;;4881197;29;20040;-94
2023/04/02 03:34:32;;;;;;;10.57;1.63;;;;;;;;;;4884218;29;20041;-95
2023/04/02 03:37:06;;;;;;;6.63;1.70;;;;;;;;;;4883796;29;20035;-95
2023/04/02 03:39:38;;;;;;;5.50;2.13;;;;;;;;;;4893908;29;20039;-95
2023/04/02 03:42:04;;;;;;;10.20;1.55;;;;;;;;;;4883387;29;20248;-94
2023/04/02 03:44:45;;;;;;;3.33;1.17;;;;;;;;;;4894975;29;20588;-94
2023/04/02 03:47:41;;;;;;;2.10;1.40;;;;;;;;;;4883773;29;20032;-94
2023/04/02 03:50:11;;;;;;;9.77;2.35;;;;;;;;;;4860853;29;20048;-94
2023/04/02 03:52:45;;;;;;;4.80;1.65;;;;;;;;;;4882896;29;20039;-94
2023/04/02 03:55:21;;;;;;;13.50;2.15;;;;;;;;;;4884080;29;20104;-94
2023/04/02 03:57:50;;;;;;;14.55;1.75;;;;;;;;;;4883011;29;20039;-95
2023/04/02 04:00:44;;;;;;;9.50;1.77;;;;;;;;;;4902780;29;20079;-94
2023/04/02 04:03:19;;;;;;;13.23;1.45;;;;;;;;;;4888784;29;20029;-93
2023/04/02 04:05:51;;;;;;;4.32;1.10;;;;;;;;;;4888590;29;20040;-95
2023/04/02 04:08:21;;;;;;;17.50;2.00;;;;;;;;;;4894027;29;20032;-94
2023/04/02 04:10:52;;;;;;;4.93;1.45;;;;;;;;;;4874836;29;20067;-94
2023/04/02 04:13:40;;;;;;;7.88;1.88;;;;;;;;;;4893222;29;20420;-95
2023/04/02 04:16:09;;;;;;;6.75;1.63;;;;;;;;;;4886312;29;20024;-95
2023/04/02 04:18:50;;;;;;;4.63;1.95;;;;;;;;;;4891990;29;20009;-96
2023/04/02 04:21:36;;;;;;;5.22;1.48;;;;;;;;;;4907142;29;20024;-94
2023/04/02 04:24:10;;;;;;;8.63;2.40;;;;;;;;;;4894425;29;20021;-93
2023/04/02 04:27:02;;;;;;;13.33;1.90;;;;;;;;;;4888946;29;20080;-94
2023/04/02 04:29:31;;;;;;;4.28;1.35;;;;;;;;;;4877472;29;20041;-94
2023/04/02 04:32:07;;;;;;;5.25;1.70;;;;;;;;;;4865491;29;20032;-94
2023/04/02 04:34:45;;;;;;;3.42;1.83;;;;;;;;;;4880526;29;20554;-95
2023/04/02 04:37:20;;;;;;;6.00;1.58;;;;;;;;;;4863727;29;20067;-94
2023/04/02 04:39:51;;;;;;;9.05;1.63;;;;;;;;;;4875673;29;20086;-95
2023/04/02 04:42:25;;;;;;;8.00;1.63;;;;;;;;;;4863128;29;20029;-94
2023/04/02 04:44:52;;;;;;;9.43;1.75;;;;;;;;;;4864279;29;20029;-95
2023/04/02 04:47:39;;;;;;;11.95;1.80;;;;;;;;;;4861358;29;20029;-95
2023/04/02 04:50:12;;;;;;;6.38;1.65;;;;;;;;;;4895171;29;20040;-95
2023/04/02 04:52:39;;;;;;;4.03;1.58;;;;;;;;;;4865938;29;20041;-96
2023/04/02 04:55:24;;;;;;;12.38;2.03;;;;;;;;;;4877032;29;20037;-94
2023/04/02 04:57:54;;;;;;;5.80;1.20;;;;;;;;;;4858815;29;20040;-94
2023/04/02 05:00:36;;;;;;;8.82;1.48;;;;;;;;;;4881868;29;20022;-95
2023/04/02 05:03:08;;;;;;;7.25;1.48;;;;;;;;;;4881554;29;20033;-95
2023/04/02 05:05:37;;;;;;;6.57;1.50;;;;;;;;;;4872128;29;20040;-94
2023/04/02 05:08:30;;;;;;;7.57;1.50;;;;;;;;;;4871825;29;20037;-95
2023/04/02 05:11:01;;;;;;;15.43;2.55;;;;;;;;;;4865105;29;20128;-95
2023/04/02 05:13:28;;;;;;;16.30;2.08;;;;;;;;;;4886637;29;20064;-96
2023/04/02 05:16:04;;;;;;;8.13;1.63;;;;;;;;;;4871046;29;20041;-95
2023/04/02 05:18:49;;;;;;;9.02;1.73;;;;;;;;;;4869497;29;20021;-96
2023/04/02 05:21:30;;;;;;;4.30;1.10;;;;;;;;;;4884790;29;20037;-95
2023/04/02 05:23:58;;;;;;;8.40;1.95;;;;;;;;;;4886774;29;20029;-95
2023/04/02 05:26:40;;;;;;;11.65;1.70;;;;;;;;;;4886637;29;20041;-95
2023/04/02 05:29:25;;;;;;;11.38;1.50;;;;;;;;;;4885054;29;20041;-94
2023/04/02 05:32:08;;;;;;;8.70;1.75;;;;;;;;;;4874533;29;20100;-95
2023/04/02 05:34:37;;;;;;;4.75;1.33;;;;;;;;;;4870340;29;20032;-95
2023/04/02 05:37:19;;;;;;;5.28;1.85;;;;;;;;;;4884060;29;20045;-95
2023/04/02 05:40:06;;;;;;;4.97;2.15;;;;;;;;;;4887637;29;20104;-95
2023/04/02 05:42:35;;;;;;;16.08;1.88;;;;;;;;;;4883031;29;20034;-94
2023/04/02 05:45:15;;;;;;;7.90;1.50;;;;;;;;;;4880111;29;20479;-94
2023/04/02 05:47:42;;;;;;;10.18;1.25;;;;;;;;;;4861144;29;20025;-95
2023/04/02 18:08:24;;;;;;;3.08;1.20;;;;;;;;;;836657;23;20349;-92
2023/04/02 18:11:09;;;;;;;3.25;1.83;;;;;;;;;;4886720;29;20529;-94
2023/04/02 18:13:39;;;;;;;1.88;1.08;;;;;;;;;;4902595;29;20128;-94
2023/04/02 18:16:17;;;;;;;2.63;1.33;;;;;;;;;;4882384;29;20095;-95
2023/04/02 18:18:46;;;;;;;1.65;1.10;;;;;;;;;;4888085;29;20505;-95
2023/04/02 18:21:15;;;;;;;5.47;2.50;;;;;;;;;;4878506;29;20035;-94
2023/04/02 18:24:00;;;;;;;5.28;2.10;;;;;;;;;;4885672;29;20041;-95
2023/04/02 18:26:42;;;;;;;5.75;1.60;;;;;;;;;;4878336;29;20054;-95
2023/04/02 18:29:29;;;;;;;2.75;1.50;;;;;;;;;;4879838;29;20096;-93
2023/04/02 18:31:59;;;;;;;4.13;2.72;;;;;;;;;;4893731;29;20093;-94
2023/04/02 18:34:44;;;;;;;3.10;2.50;;;;;;;;;;4863246;29;20029;-95
2023/04/02 18:37:37;;;;;;;8.70;3.13;;;;;;;;;;4869427;29;20029;-95
2023/04/02 18:40:35;;;;;;;4.57;1.85;;;;;;;;;;4866111;29;20203;-95
2023/04/02 18:43:21;;;;;;;3.80;1.85;;;;;;;;;;4843081;29;20065;-95
2023/04/02 18:45:53;;;;;;;4.75;1.55;;;;;;;;;;4876865;29;20541;-94
2023/04/02 18:48:33;;;;;;;2.53;1.33;;;;;;;;;;4881661;29;20096;-95
2023/04/02 18:51:00;;;;;;;2.50;1.35;;;;;;;;;;4863191;29;20040;-95
2023/04/02 18:53:26;;;;;;;2.63;1.33;;;;;;;;;;4851518;29;20493;-95
2023/04/02 18:55:54;;;;;;;5.90;1.17;;;;;;;;;;4871978;29;20031;-95
2023/04/02 18:58:35;;;;;;;4.35;2.33;;;;;;;;;;4878454;29;20104;-95
2023/04/02 19:01:04;;;;;;;4.00;1.13;;;;;;;;;;4863905;29;20056;-94
2023/04/02 19:03:40;;;;;;;2.65;1.17;;;;;;;;;;4877677;29;20120;-95
2023/04/02 19:06:24;;;;;;;4.25;1.38;;;;;;;;;;4877529;29;20506;-95
2023/04/02 19:09:08;;;;;;;3.58;1.55;;;;;;;;;;4864323;29;20042;-95
2023/04/02 19:11:34;;;;;;;5.43;2.08;;;;;;;;;;4881466;29;20029;-94
2023/04/02 19:14:07;;;;;;;4.45;1.85;;;;;;;;;;4866408;29;20043;-94
2023/04/02 19:16:42;;;;;;;2.85;2.15;;;;;;;;;;4887571;29;20045;-94
2023/04/02 19:19:15;;;;;;;4.05;1.80;;;;;;;;;;4870910;29;20029;-95
2023/04/02 19:21:47;;;;;;;4.05;2.03;;;;;;;;;;4890191;29;20501;-94
2023/04/02 19:24:22;;;;;;;4.40;2.45;;;;;;;;;;4892987;29;20053;-94
2023/04/02 19:26:51;;;;;;;10.43;2.73;;;;;;;;;;4874368;29;20048;-94
2023/04/02 19:29:51;;;;;;;10.65;4.93;;;;;;;;;;4875365;29;20033;-95
2023/04/02 19:32:27;;;;;;;9.77;2.83;;;;;;;;;;4859671;29;20074;-95
2023/04/02 19:34:57;;;;;;;5.20;2.80;;;;;;;;;;4872072;29;20459;-95
2023/04/02 19:40:50;;;;;;;4.00;2.13;;;;;;;;;;4878257;29;20044;-94
2023/04/02 19:43:22;;;;;;;5.22;2.15;;;;;;;;;;4904168;29;20061;-94
2023/04/02 19:45:53;;;;;;;3.20;1.67;;;;;;;;;;4876055;29;20033;-95
2023/04/02 19:48:21;;;;;;;9.32;1.40;;;;;;;;;;4883139;29;20033;-94
2023/04/02 19:50:48;;;;;;;12.85;2.75;;;;;;;;;;4871495;29;20399;-94
2023/04/02 19:53:17;;;;;;;7.72;2.42;;;;;;;;;;4884666;29;20443;-95
2023/04/02 19:55:44;;;;;;;9.60;1.80;;;;;;;;;;4876541;29;20040;-94
2023/04/02 19:58:30;;;;;;;5.20;1.60;;;;;;;;;;4882999;29;20031;-94
2023/04/02 20:00:59;;;;;;;8.90;1.50;;;;;;;;;;4886292;29;20054;-95
2023/04/02 20:03:25;;;;;;;8.15;1.50;;;;;;;;;;4883393;29;20030;-95
2023/04/02 20:05:52;;;;;;;2.97;1.15;;;;;;;;;;4871761;29;20029;-95
2023/04/02 20:08:18;;;;;;;2.92;1.27;;;;;;;;;;4883747;29;20497;-96
2023/04/02 20:10:47;;;;;;;5.50;1.52;;;;;;;;;;4894825;29;20348;-95
2023/04/02 20:13:13;;;;;;;5.10;1.42;;;;;;;;;;4870837;29;20549;-95
2023/04/02 20:15:40;;;;;;;2.45;1.50;;;;;;;;;;4895906;29;20124;-95
2023/04/02 20:18:25;;;;;;;7.57;1.98;;;;;;;;;;4876299;29;20133;-94
2023/04/02 20:20:52;;;;;;;3.25;1.40;;;;;;;;;;4880904;29;20071;-95
2023/04/02 20:23:30;;;;;;;1.75;1.10;;;;;;;;;;4886625;29;20044;-96
2023/04/02 20:25:56;;;;;;;2.60;1.23;;;;;;;;;;4877205;29;20035;-96
2023/04/02 20:28:23;;;;;;;4.20;1.58;;;;;;;;;;4880009;29;20037;-95
2023/04/02 20:30:53;;;;;;;2.72;1.50;;;;;;;;;;4896858;29;20043;-95
2023/04/02 20:33:21;;;;;;;3.47;1.63;;;;;;;;;;4884072;29;20051;-95
2023/04/02 20:35:49;;;;;;;4.70;1.27;;;;;;;;;;4910773;29;20059;-96
2023/04/02 20:38:19;;;;;;;2.70;1.40;;;;;;;;;;4876668;29;20078;-95
2023/04/02 20:40:51;;;;;;;3.53;1.05;;;;;;;;;;4878099;29;20036;-95
2023/04/02 20:43:20;;;;;;;3.85;1.63;;;;;;;;;;4864339;29;20121;-96
2023/04/02 20:45:54;;;;;;;2.45;1.45;;;;;;;;;;4898591;29;20028;-96
2023/04/02 20:48:31;;;;;;;;;;;;;;;;;;;;;
2023/04/02 20:50:58;;;;;;;4.25;1.40;;;;;;;;;;4880254;29;20433;-95
2023/04/02 20:53:46;;;;;;;4.78;1.50;;;;;;;;;;4883731;29;20076;-94
2023/04/02 20:56:19;;;;;;;3.72;1.50;;;;;;;;;;4880962;29;20331;-95
2023/04/02 20:58:46;;;;;;;4.35;1.50;;;;;;;;;;4865201;29;20029;-95
2023/04/02 21:01:19;;;;;;;3.90;1.50;;;;;;;;;;4896115;29;20022;-95
2023/04/02 21:03:45;;;;;;;6.68;1.58;;;;;;;;;;4879552;29;20025;-94
2023/04/02 21:06:16;;;;;;;3.67;1.65;;;;;;;;;;4886176;29;20062;-96
2023/04/02 21:08:46;;;;;;;6.70;1.77;;;;;;;;;;4888275;29;20036;-95
2023/04/02 21:11:12;;;;;;;2.97;1.25;;;;;;;;;;4866431;29;20529;-96
2023/04/02 21:13:51;;;;;;;;;;;;;;;;;;;;;
2023/04/02 21:16:22;;;;;;;5.82;1.48;;;;;;;;;;4879108;29;20093;-95
2023/04/02 21:18:50;;;;;;;7.72;1.75;;;;;;;;;;4895844;29;20060;-96
2023/04/02 21:21:19;;;;;;;3.42;1.58;;;;;;;;;;4863794;29;20037;-95
2023/04/02 21:23:46;;;;;;;5.25;1.45;;;;;;;;;;4895048;29;20069;-95
2023/04/02 21:26:16;;;;;;;3.33;1.10;;;;;;;;;;4886602;29;20025;-95
2023/04/02 21:28:46;;;;;;;2.67;1.27;;;;;;;;;;4854054;29;20041;-95
2023/04/02 21:31:32;;;;;;;7.55;1.45;;;;;;;;;;4895739;29;20020;-95
2023/04/02 21:34:01;;;;;;;4.25;1.23;;;;;;;;;;4870074;29;20409;-95
2023/04/02 21:36:40;;;;;;;3.17;1.70;;;;;;;;;;4872547;29;20273;-95
2023/04/02 21:39:08;;;;;;;8.27;1.95;;;;;;;;;;4870859;29;20101;-96
2023/04/02 21:41:42;;;;;;;3.80;1.73;;;;;;;;;;4875070;29;20037;-95
2023/04/02 21:44:11;;;;;;;2.42;1.48;;;;;;;;;;4859447;29;20044;-95
2023/04/02 21:46:41;;;;;;;6.55;1.40;;;;;;;;;;4878529;29;20029;-95
2023/04/02 21:49:13;;;;;;;4.07;1.52;;;;;;;;;;4878286;29;20028;-95
2023/04/02 21:51:40;;;;;;;5.72;1.60;;;;;;;;;;4874435;29;20122;-96
2023/04/02 21:54:07;;;;;;;1.58;0.93;;;;;;;;;;4876475;29;20105;-96
2023/04/02 21:56:41;;;;;;;5.82;1.75;;;;;;;;;;4880593;29;20033;-95
2023/04/02 21:59:09;;;;;;;4.97;1.33;;;;;;;;;;4871009;29;20040;-96
2023/04/02 22:01:38;;;;;;;3.97;1.52;;;;;;;;;;4884826;29;20029;-94
2023/04/02 22:04:20;;;;;;;4.15;1.20;;;;;;;;;;4885045;29;20041;-95
2023/04/02 22:06:47;;;;;;;3.08;1.38;;;;;;;;;;4886744;29;20096;-95
2023/04/02 22:12:17;;;;;;;4.15;1.60;;;;;;;;;;4865295;29;20530;-94
2023/04/02 22:14:44;;;;;;;1.75;1.05;;;;;;;;;;4884036;29;20546;-94
2023/04/02 22:17:12;;;;;;;4.55;1.88;;;;;;;;;;4897780;29;20042;-95
2023/04/02 22:19:38;;;;;;;3.55;1.70;;;;;;;;;;4871086;29;20283;-95
2023/04/02 22:22:05;;;;;;;4.18;1.50;;;;;;;;;;4870386;29;21201;-95
2023/04/02 22:24:32;;;;;;;3.47;1.40;;;;;;;;;;4871654;29;20077;-94
2023/04/02 22:26:58;;;;;;;6.18;2.03;;;;;;;;;;4867373;29;20032;-94
2023/04/02 22:29:27;;;;;;;3.55;1.63;;;;;;;;;;4869113;29;20138;-94
2023/04/02 22:31:53;;;;;;;4.35;1.73;;;;;;;;;;4886204;29;20025;-94
2023/04/02 22:34:20;;;;;;;4.00;1.88;;;;;;;;;;4872832;29;20040;-95
2023/04/02 22:36:46;;;;;;;2.28;1.60;;;;;;;;;;4871702;29;20165;-95
2023/04/02 22:39:13;;;;;;;2.53;1.52;;;;;;;;;;4868527;29;20037;-94
2023/04/02 22:41:41;;;;;;;3.35;1.67;;;;;;;;;;4872208;29;20048;-94
2023/04/02 22:44:07;;;;;;;4.63;1.40;;;;;;;;;;4866975;29;20037;-93
2023/04/02 22:46:33;;;;;;;3.65;1.60;;;;;;;;;;4870405;29;20032;-94
2023/04/02 22:49:00;;;;;;;5.72;1.60;;;;;;;;;;4883992;29;20396;-94
2023/04/02 22:51:27;;;;;;;3.33;1.52;;;;;;;;;;4868842;29;20239;-94
2023/04/02 22:53:54;;;;;;;4.78;1.60;;;;;;;;;;4887576;29;20029;-94
2023/04/02 22:56:27;;;;;;;4.22;1.60;;;;;;;;;;4851885;29;20041;-95
2023/04/02 22:58:53;;;;;;;4.68;1.67;;;;;;;;;;4873659;29;20093;-94
2023/04/02 23:01:31;;;;;;;2.58;1.17;;;;;;;;;;4866114;29;20029;-94
2023/04/02 23:03:57;;;;;;;3.50;1.42;;;;;;;;;;4864673;29;20048;-94
2023/04/02 23:06:24;;;;;;;5.00;1.60;;;;;;;;;;4871014;29;20506;-95
2023/04/02 23:08:50;;;;;;;5.38;1.33;;;;;;;;;;4890248;29;20025;-95
2023/04/02 23:11:17;;;;;;;3.22;1.23;;;;;;;;;;4874221;29;20481;-95
2023/04/02 23:13:44;;;;;;;2.78;1.40;;;;;;;;;;4856176;29;20708;-95
2023/04/02 23:16:12;;;;;;;3.05;1.30;;;;;;;;;;4861775;29;20036;-95
2023/04/02 23:18:47;;;;;;;4.60;1.33;;;;;;;;;;4866646;29;20109;-94
2023/04/02 23:21:13;;;;;;;4.68;2.03;;;;;;;;;;4866947;29;20025;-94
2023/04/02 23:23:41;;;;;;;1.52;0.90;;;;;;;;;;4881171;29;20036;-94
2023/04/02 23:26:09;;;;;;;5.47;1.42;;;;;;;;;;4872837;29;20044;-95
2023/04/02 23:28:38;;;;;;;2.88;1.15;;;;;;;;;;4873950;29;20045;-95
2023/04/02 23:31:06;;;;;;;5.43;1.60;;;;;;;;;;4871454;29;20033;-95
2023/04/02 23:33:33;;;;;;;4.28;1.50;;;;;;;;;;4875613;29;20056;-94
2023/04/02 23:36:10;;;;;;;4.15;1.58;;;;;;;;;;4881627;29;20033;-95
2023/04/02 23:38:37;;;;;;;3.22;1.17;;;;;;;;;;4866209;29;20025;-95
2023/04/02 23:41:03;;;;;;;2.47;0.93;;;;;;;;;;4888228;29;20034;-93
2023/04/02 23:43:30;;;;;;;6.35;1.20;;;;;;;;;;4871733;29;20024;-94
2023/04/02 23:45:56;;;;;;;2.47;1.35;;;;;;;;;;4885451;29;20041;-94
2023/04/02 23:48:26;;;;;;;3.38;1.45;;;;;;;;;;4875166;29;20037;-95
2023/04/02 23:50:52;;;;;;;3.72;1.20;;;;;;;;;;4860457;29;20072;-95
2023/04/02 23:53:18;;;;;;;3.33;1.30;;;;;;;;;;4888377;29;20101;-94
2023/04/02 23:55:47;;;;;;;4.47;1.00;;;;;;;;;;4873524;29;20034;-95
2023/04/02 23:58:15;;;;;;;8.63;1.10;;;;;;;;;;4861199;29;20724;-95
